Greeley, IA (52050)

1:56 PM CDT on August 30, 2016 (GMT -0500)
Rolling Farm | | Change Station

Elev 1201 ft 42.61 °N, 91.15 °W | Updated 6 minutes ago

Partly Cloudy
Partly Cloudy
85.5 °F
Feels Like 91 °F
N
4.7
Wind Variable Wind from SW

Today
High -- | Low -- °F
--% Chance of Precip.
Yesterday
High -- | Low -- °F
Precip. -- in
Pressure 30.12 in
Visibility 10.0 miles
Clouds Few 2800 ft
Heat Index 91 °F
Dew Point 71 °F
Humidity 62%
Rainfall 0.00 in
Snow Depth Not available.
6:28 AM 7:41 PM
Waning Crescent, 3% visible
METAR KMXO 301835Z AUTO VRB06KT 250V320 10SM FEW028 28/22 A3012 RMK AO2
Pressure 30.12 in
Visibility 10.0 miles
Clouds Few 2800 ft
Heat Index 91 °F
Dew Point 71 °F
Humidity 62%
Rainfall 0.00 in
Snow Depth Not available.
6:28 AM 7:41 PM
Waning Crescent, 3% visible
METAR KMXO 301835Z AUTO VRB06KT 250V320 10SM FEW028 28/22 A3012 RMK AO2

10-Day Weather Forecast

Almanac

Astronomy

Aug. 30, 2016 Rise Set
Actual Time
Civil Twilight
Nautical Twilight
Astronomical Twilight
Moon
Length of Visible Light
Length of Day
Tomorrow will be .
, % of the Moon is Illuminated

Today's Extremes

State Highs State Lows

Community

WunderPhotos

Upload Photos

1,935,875 photos uploaded!

WunderBlog® & News

Nearby

Air Quality

  Air Quality AQ Index Pollutant
Not available.

Snow Depth

Station Depth Elevation

Earthquake Activity

City Distance Mag. Time & Date
Minimum magnitude displayed is 2.5.

Coastal Water Temperatures

Place Temperature

Stations

Nearby Weather Stations

Station Location Temp. Windchill Dew Point Humidity Wind Precip. Elev Updated Type
                   

Watches & Warnings

There are currently no watches in effect.